Ana Sayfa
METAR-TAF:

METAR-TAF

Havaalanları :

Ciudad Obregón, Meksika

Enlem: 27-24N, Boylam: 109-50W, yükseklik: 62 m

Güncel hava durumu gözlemi

Rapor saat 01:41 UTC de 6 saat ve 55 dakika önce yapıldı.
Rüzgar güneybatıdan 5 kt
Sıcaklık 33°C
Nem 28%
Basınç 1007 hPa
Görüş mesafesi: 16.1 km
Açık gökyüzü

METAR: MMCN 180141Z 23005KT 10SM SKC 33/12 A2974 RMK ISOL CI HZY

Saat: 01:36 (08:36 UTC)

Tahmin

Rapor saat 05:25 UTC de 3 saat ve 11 dakika önce yapıldı.
Ayın 18'si saat 06 UTC'den ayın 19'si saat 06 UTC'ye kadar geçerli Tahmin
Rüzgar güneybatıdan 5 kt
Görüş mesafesi: 10 km
Açık gökyüzü
Ayın 18'si saat 1800 UTC'den
Rüzgar güneybatıdan 10 kt
Görüş mesafesi: 10 km
Açık gökyüzü
Ayın 19'si saat 0300 UTC'den
Rüzgar batı/güneybatıdan 5 kt
Görüş mesafesi: 10 km
Açık gökyüzü

TAF: MMCN 180525Z 1806/1906 22005KT P6SM SKC FM181800 23010KT P6SM SKC FM190300 24005KT P6SM SKC

4.000'den fazla havaalanı için hava durumu gözlemleri ve tahminleri (METAR ve TAF raporları).

Kullanılabilir istasyonlar harita üzerinde sarı ve kırmızı noktalarla gösterilir.

İstasyonun adını görmek için fareyi noktanın üzerinde gezdirin.

Sonrasında hava gözlem ve tahminlerini görmek için tıklayın.

Haritayı değiştirmek için: yaklaştırmak için siyah artı işaretli yeşil düğmeye ve uzaklaştırmak için de eksi işaretli düğmeye hızla tıklayın; bitişik haritalar için yeşil okları kullanın.


METAR-TAF: